Time;durP1;ratioP1;P1;durP2;ratioP2;P2;SDS_P1;SDS_P2;PMS_P1;PMS_P2;Temp;Humidity;BMP_temperature;BMP_pressure;BME280_temperature;BME280_humidity;BME280_pressure;Samples;Min_cycle;Max_cycle;Signal;HPM_P1;HPM_P2
2021/11/14 00:01:24;;;;;;;14.47;8.47;;;;;;;;;;5020638;28;20450;-85
2021/11/14 00:03:53;;;;;;;9.93;7.80;;;;;;;;;;5030727;28;20473;-85
2021/11/14 00:06:21;;;;;;;9.37;7.70;;;;;;;;;;5030616;28;20464;-85
2021/11/14 00:08:48;;;;;;;10.23;7.83;;;;;;;;;;5024555;28;20817;-84
2021/11/14 00:11:17;;;;;;;12.97;8.43;;;;;;;;;;5019103;28;20489;-84
2021/11/14 00:13:45;;;;;;;9.73;7.83;;;;;;;;;;5016665;28;20461;-85
2021/11/14 00:16:13;;;;;;;11.00;8.50;;;;;;;;;;5036029;28;21211;-84
2021/11/14 00:18:41;;;;;;;12.53;8.30;;;;;;;;;;5013819;28;20450;-83
2021/11/14 00:21:11;;;;;;;8.80;7.13;;;;;;;;;;5031176;28;20465;-83
2021/11/14 00:23:38;;;;;;;10.50;7.40;;;;;;;;;;5014121;28;21009;-86
2021/11/14 00:26:05;;;;;;;9.10;7.60;;;;;;;;;;5032596;28;20702;-86
2021/11/14 00:28:32;;;;;;;8.20;6.73;;;;;;;;;;5031142;28;20462;-84
2021/11/14 00:31:00;;;;;;;9.30;7.47;;;;;;;;;;5035776;28;20485;-84
2021/11/14 00:33:27;;;;;;;11.47;7.30;;;;;;;;;;5034536;28;20438;-85
2021/11/14 00:35:54;;;;;;;8.60;7.17;;;;;;;;;;5032234;28;20798;-84
2021/11/14 00:38:24;;;;;;;9.73;6.80;;;;;;;;;;5030939;28;20438;-84
2021/11/14 00:40:52;;;;;;;7.53;6.83;;;;;;;;;;5013080;28;21002;-82
2021/11/14 00:43:19;;;;;;;10.30;6.50;;;;;;;;;;5032233;28;20490;-83
2021/11/14 00:45:47;;;;;;;7.57;6.87;;;;;;;;;;5013084;28;20475;-82
2021/11/14 00:48:14;;;;;;;9.10;6.93;;;;;;;;;;5013335;28;20458;-83
2021/11/14 00:50:44;;;;;;;9.70;6.63;;;;;;;;;;5029802;28;20454;-83
2021/11/14 00:53:12;;;;;;;9.40;6.87;;;;;;;;;;5037235;28;20469;-84
2021/11/14 00:55:41;;;;;;;7.97;6.73;;;;;;;;;;5041545;28;20954;-84
2021/11/14 00:58:08;;;;;;;7.30;6.43;;;;;;;;;;5052058;28;20433;-85
2021/11/14 01:00:36;;;;;;;7.63;6.83;;;;;;;;;;5041181;28;20469;-84
2021/11/14 01:03:03;;;;;;;7.03;6.30;;;;;;;;;;5031784;28;20845;-85
2021/11/14 01:05:31;;;;;;;8.87;7.10;;;;;;;;;;5014125;28;20466;-83
2021/11/14 01:07:58;;;;;;;7.80;6.50;;;;;;;;;;5014452;28;20484;-84
2021/11/14 01:10:27;;;;;;;7.93;6.83;;;;;;;;;;5020938;28;20815;-82
2021/11/14 01:12:56;;;;;;;7.73;6.60;;;;;;;;;;5015505;28;21003;-82
2021/11/14 01:15:24;;;;;;;8.00;7.20;;;;;;;;;;5034042;28;20529;-82
2021/11/14 01:17:51;;;;;;;8.53;6.60;;;;;;;;;;5040549;28;20464;-82
2021/11/14 01:20:21;;;;;;;8.53;7.13;;;;;;;;;;5051044;28;20930;-85
2021/11/14 01:22:49;;;;;;;7.23;6.43;;;;;;;;;;5032487;28;20981;-82
2021/11/14 01:25:17;;;;;;;7.77;6.90;;;;;;;;;;5050277;28;20448;-83
2021/11/14 01:27:44;;;;;;;7.93;6.33;;;;;;;;;;5027856;28;20454;-83
2021/11/14 01:30:15;;;;;;;6.97;6.30;;;;;;;;;;5033738;28;20444;-84
2021/11/14 01:32:42;;;;;;;7.67;6.87;;;;;;;;;;5033444;28;20470;-83
2021/11/14 01:35:11;;;;;;;10.13;7.07;;;;;;;;;;5037197;28;20918;-83
2021/11/14 01:37:38;;;;;;;8.20;7.20;;;;;;;;;;5048956;28;20437;-82
2021/11/14 01:40:06;;;;;;;7.50;6.70;;;;;;;;;;5050144;28;20445;-85
2021/11/14 01:42:33;;;;;;;9.17;6.83;;;;;;;;;;5033170;28;20936;-82
2021/11/14 01:45:01;;;;;;;9.50;6.87;;;;;;;;;;5013992;28;20808;-83
2021/11/14 01:47:29;;;;;;;13.20;7.37;;;;;;;;;;5031140;28;20472;-81
2021/11/14 01:49:57;;;;;;;9.43;6.50;;;;;;;;;;5040608;28;20433;-82
2021/11/14 01:52:25;;;;;;;7.40;6.23;;;;;;;;;;5025709;28;20847;-87
2021/11/14 01:54:53;;;;;;;8.30;6.40;;;;;;;;;;5014186;28;20466;-85
2021/11/14 01:57:20;;;;;;;7.37;6.23;;;;;;;;;;4994459;28;20466;-82
2021/11/14 01:59:48;;;;;;;7.90;6.67;;;;;;;;;;4995341;28;20459;-83
2021/11/14 02:02:15;;;;;;;7.87;6.20;;;;;;;;;;4996174;28;20487;-82
2021/11/14 02:04:43;;;;;;;8.67;7.03;;;;;;;;;;5016237;28;20784;-84
2021/11/14 02:07:13;;;;;;;8.60;6.43;;;;;;;;;;5023514;28;20430;-82
2021/11/14 02:09:40;;;;;;;6.17;5.60;;;;;;;;;;4998364;28;20984;-84
2021/11/14 02:12:07;;;;;;;7.33;6.17;;;;;;;;;;5002521;28;20486;-82
2021/11/14 02:14:35;;;;;;;7.00;6.30;;;;;;;;;;5013662;28;20454;-82
2021/11/14 02:17:03;;;;;;;9.27;6.73;;;;;;;;;;4994265;28;20462;-83
2021/11/14 02:19:30;;;;;;;12.77;7.20;;;;;;;;;;5006962;28;20463;-82
2021/11/14 02:21:58;;;;;;;8.50;6.93;;;;;;;;;;5019330;28;20458;-82
2021/11/14 02:24:26;;;;;;;10.00;6.73;;;;;;;;;;5024210;28;20481;-83
2021/11/14 02:26:53;;;;;;;7.83;6.80;;;;;;;;;;5032764;28;20449;-80
2021/11/14 02:29:20;;;;;;;9.80;7.37;;;;;;;;;;5032900;28;20957;-84
2021/11/14 02:31:48;;;;;;;7.10;6.40;;;;;;;;;;5001631;28;20495;-81
2021/11/14 02:34:15;;;;;;;7.27;6.30;;;;;;;;;;4999779;28;20469;-81
2021/11/14 02:36:42;;;;;;;7.83;6.37;;;;;;;;;;5019909;28;20430;-81
2021/11/14 02:39:11;;;;;;;8.70;7.47;;;;;;;;;;5023974;28;20452;-82
2021/11/14 02:41:38;;;;;;;6.87;6.17;;;;;;;;;;5032296;28;20833;-82
2021/11/14 02:44:06;;;;;;;9.70;7.33;;;;;;;;;;5033992;28;20504;-83
2021/11/14 02:46:33;;;;;;;7.13;6.43;;;;;;;;;;5028523;28;20469;-84
2021/11/14 02:49:00;;;;;;;7.00;6.30;;;;;;;;;;5026144;28;20462;-84
2021/11/14 02:51:29;;;;;;;6.90;5.87;;;;;;;;;;4999759;28;20466;-83
2021/11/14 02:53:57;;;;;;;7.73;6.73;;;;;;;;;;5016495;28;20446;-80
2021/11/14 02:56:26;;;;;;;7.47;6.77;;;;;;;;;;5038445;28;20450;-83
2021/11/14 02:58:53;;;;;;;8.43;6.53;;;;;;;;;;5040002;28;20446;-83
2021/11/14 03:01:22;;;;;;;8.63;5.90;;;;;;;;;;5037017;28;20540;-82
2021/11/14 03:03:51;;;;;;;7.77;6.77;;;;;;;;;;5033038;28;20482;-83
2021/11/14 03:06:18;;;;;;;7.43;6.60;;;;;;;;;;5031716;28;20480;-83
2021/11/14 03:08:45;;;;;;;6.63;5.93;;;;;;;;;;5033593;28;20438;-83
2021/11/14 03:11:12;;;;;;;7.20;6.50;;;;;;;;;;5031654;28;20485;-82
2021/11/14 03:13:41;;;;;;;8.67;6.90;;;;;;;;;;5039561;28;20825;-82
2021/11/14 03:16:11;;;;;;;8.50;7.13;;;;;;;;;;5035295;28;20442;-83
2021/11/14 03:18:38;;;;;;;9.40;6.80;;;;;;;;;;5017506;28;20466;-83
2021/11/14 03:21:06;;;;;;;7.63;6.30;;;;;;;;;;5013045;28;20553;-81
2021/11/14 03:23:33;;;;;;;7.83;7.03;;;;;;;;;;5028924;28;20474;-85
2021/11/14 03:26:01;;;;;;;7.03;6.33;;;;;;;;;;5032877;28;20488;-83
2021/11/14 03:28:29;;;;;;;7.57;6.40;;;;;;;;;;5034437;28;20446;-85
2021/11/14 03:30:58;;;;;;;7.30;6.10;;;;;;;;;;5015610;28;20442;-83
2021/11/14 03:33:25;;;;;;;7.50;6.43;;;;;;;;;;5020997;28;21866;-81
2021/11/14 03:35:55;;;;;;;10.90;6.40;;;;;;;;;;5015393;28;20455;-84
2021/11/14 03:38:24;;;;;;;6.37;5.77;;;;;;;;;;5013257;28;20446;-82
2021/11/14 03:40:52;;;;;;;6.57;5.87;;;;;;;;;;5011800;28;20443;-85
2021/11/14 03:43:19;;;;;;;6.60;5.90;;;;;;;;;;5013320;28;20509;-85
2021/11/14 03:45:46;;;;;;;7.57;6.77;;;;;;;;;;5014287;28;20439;-82
2021/11/14 03:48:15;;;;;;;9.33;6.20;;;;;;;;;;5035028;28;20454;-83
2021/11/14 03:50:42;;;;;;;6.83;6.00;;;;;;;;;;5039036;28;20441;-80
2021/11/14 03:53:11;;;;;;;8.30;6.50;;;;;;;;;;5039673;28;20481;-83
2021/11/14 03:55:39;;;;;;;6.50;5.90;;;;;;;;;;5012672;28;20986;-80
2021/11/14 03:58:06;;;;;;;7.13;6.10;;;;;;;;;;5012010;28;20463;-81
2021/11/14 04:00:37;;;;;;;10.10;6.37;;;;;;;;;;5013155;28;20470;-82
2021/11/14 04:03:05;;;;;;;7.27;6.53;;;;;;;;;;5027810;28;20551;-84
2021/11/14 04:05:33;;;;;;;6.60;5.87;;;;;;;;;;5035071;28;20939;-82
2021/11/14 04:08:01;;;;;;;7.37;6.60;;;;;;;;;;5033931;28;20952;-82
2021/11/14 04:10:29;;;;;;;6.67;5.93;;;;;;;;;;5037211;28;20437;-81
2021/11/14 04:12:57;;;;;;;6.60;6.00;;;;;;;;;;5033319;28;20474;-81
2021/11/14 04:15:24;;;;;;;9.47;6.50;;;;;;;;;;5050049;28;20453;-85
2021/11/14 04:17:55;;;;;;;6.70;5.90;;;;;;;;;;5036937;28;20470;-83
2021/11/14 04:20:23;;;;;;;8.70;6.53;;;;;;;;;;5012476;28;20454;-82
2021/11/14 04:22:52;;;;;;;8.10;6.47;;;;;;;;;;5012956;28;20845;-83
2021/11/14 04:25:19;;;;;;;7.67;6.77;;;;;;;;;;5028803;28;20458;-81
2021/11/14 04:27:47;;;;;;;7.40;6.53;;;;;;;;;;5015284;28;20446;-83
2021/11/14 04:30:15;;;;;;;6.67;6.00;;;;;;;;;;5034112;28;20576;-82
2021/11/14 04:32:42;;;;;;;7.03;6.00;;;;;;;;;;5034047;28;20487;-81
2021/11/14 04:35:09;;;;;;;7.07;6.23;;;;;;;;;;5032665;28;20442;-83
2021/11/14 04:37:37;;;;;;;8.20;6.70;;;;;;;;;;5031899;28;20446;-83
2021/11/14 04:40:06;;;;;;;6.80;6.20;;;;;;;;;;5032556;28;20929;-82
2021/11/14 04:42:34;;;;;;;6.97;6.27;;;;;;;;;;5032754;28;20826;-83
2021/11/14 04:45:01;;;;;;;7.23;6.27;;;;;;;;;;5019335;28;20486;-85
2021/11/14 04:47:28;;;;;;;6.93;6.33;;;;;;;;;;5013742;28;20463;-81
2021/11/14 04:49:55;;;;;;;8.20;6.17;;;;;;;;;;5014453;28;20447;-84
2021/11/14 04:52:22;;;;;;;7.73;6.07;;;;;;;;;;5026248;28;20465;-83
2021/11/14 04:54:50;;;;;;;6.77;6.10;;;;;;;;;;5037284;28;20443;-82
2021/11/14 04:57:19;;;;;;;7.60;6.60;;;;;;;;;;5024448;28;20469;-82
2021/11/14 04:59:47;;;;;;;9.43;6.53;;;;;;;;;;5011875;28;20522;-82
2021/11/14 05:02:14;;;;;;;6.23;5.40;;;;;;;;;;5011792;28;20690;-83
2021/11/14 05:04:42;;;;;;;6.30;5.70;;;;;;;;;;5010413;28;21002;-84
2021/11/14 05:07:10;;;;;;;7.90;6.80;;;;;;;;;;5025294;28;20461;-82
2021/11/14 05:09:37;;;;;;;6.43;5.83;;;;;;;;;;5034054;28;20438;-81
2021/11/14 05:12:05;;;;;;;7.37;6.57;;;;;;;;;;4998781;28;20479;-83
2021/11/14 05:14:34;;;;;;;7.50;6.73;;;;;;;;;;5024442;28;20452;-82
2021/11/14 05:17:01;;;;;;;7.30;6.60;;;;;;;;;;5036315;28;20910;-82
2021/11/14 05:19:28;;;;;;;8.37;6.97;;;;;;;;;;5026051;28;20846;-82
2021/11/14 05:21:56;;;;;;;8.30;7.50;;;;;;;;;;5022593;28;21010;-81
2021/11/14 05:24:23;;;;;;;8.97;6.20;;;;;;;;;;5011460;28;20483;-82
2021/11/14 05:26:53;;;;;;;6.90;6.20;;;;;;;;;;5011711;28;20439;-83
2021/11/14 05:29:20;;;;;;;6.57;5.87;;;;;;;;;;5024316;28;20446;-84
2021/11/14 05:31:49;;;;;;;6.57;5.90;;;;;;;;;;5031470;28;20462;-81
2021/11/14 05:34:16;;;;;;;6.83;6.13;;;;;;;;;;5033057;28;20446;-81
2021/11/14 05:36:43;;;;;;;6.03;5.43;;;;;;;;;;5036940;28;20429;-82
2021/11/14 05:39:10;;;;;;;6.78;5.90;;;;;;;;;;5033349;28;20450;-82
2021/11/14 05:41:38;;;;;;;7.65;5.80;;;;;;;;;;5031465;28;20219;-82
2021/11/14 05:44:07;;;;;;;6.27;5.67;;;;;;;;;;4999195;28;20220;-81
2021/11/14 05:46:34;;;;;;;5.83;5.23;;;;;;;;;;5012350;28;20447;-81
2021/11/14 05:49:08;;;;;;;11.60;6.30;;;;;;;;;;5012920;28;20466;-80
2021/11/14 05:51:35;;;;;;;9.00;6.55;;;;;;;;;;5032099;28;20466;-82
2021/11/14 05:54:03;;;;;;;7.10;6.40;;;;;;;;;;5032585;28;20290;-80
2021/11/14 05:56:30;;;;;;;6.68;6.07;;;;;;;;;;5032425;28;20465;-82
2021/11/14 05:59:04;;;;;;;8.43;7.30;;;;;;;;;;5036763;28;20187;-83
2021/11/14 06:01:35;;;;;;;9.05;8.02;;;;;;;;;;5035846;28;20299;-84
2021/11/14 06:04:08;;;;;;;9.02;6.68;;;;;;;;;;5010752;28;20229;-82
2021/11/14 06:06:35;;;;;;;10.45;7.93;;;;;;;;;;5018313;28;20290;-81
2021/11/14 06:09:02;;;;;;;8.80;7.20;;;;;;;;;;5010934;28;20202;-82
2021/11/14 06:11:29;;;;;;;8.40;7.55;;;;;;;;;;5015542;28;20216;-81
2021/11/14 06:13:57;;;;;;;13.10;8.65;;;;;;;;;;5032524;28;20199;-81
2021/11/14 06:16:24;;;;;;;9.20;7.85;;;;;;;;;;5024644;28;20679;-81
2021/11/14 06:18:51;;;;;;;9.55;7.60;;;;;;;;;;5014980;28;20209;-84
2021/11/14 06:21:21;;;;;;;10.52;8.70;;;;;;;;;;5034683;28;20226;-80
2021/11/14 06:23:49;;;;;;;11.48;9.80;;;;;;;;;;5031306;28;20206;-83
2021/11/14 06:26:16;;;;;;;9.02;8.13;;;;;;;;;;5030231;28;20192;-82
2021/11/14 06:28:43;;;;;;;10.82;9.05;;;;;;;;;;5030535;28;20206;-82
2021/11/14 06:31:10;;;;;;;9.90;8.57;;;;;;;;;;5004247;28;20215;-80
2021/11/14 06:33:38;;;;;;;10.05;8.40;;;;;;;;;;5020752;28;20196;-82
2021/11/14 06:36:05;;;;;;;11.70;9.27;;;;;;;;;;5038609;28;20195;-82
2021/11/14 06:38:34;;;;;;;9.80;7.72;;;;;;;;;;5019368;28;20190;-81
2021/11/14 06:41:01;;;;;;;9.82;8.50;;;;;;;;;;5051245;28;20211;-83
2021/11/14 06:43:29;;;;;;;11.23;8.57;;;;;;;;;;5053345;28;20587;-83
2021/11/14 06:45:56;;;;;;;10.35;8.70;;;;;;;;;;5054102;28;20583;-83
2021/11/14 06:48:23;;;;;;;9.43;8.47;;;;;;;;;;5036957;28;20284;-81
2021/11/14 06:50:51;;;;;;;9.13;8.13;;;;;;;;;;5028573;28;20442;-83
2021/11/14 06:53:18;;;;;;;10.37;9.33;;;;;;;;;;5035876;28;20481;-80
2021/11/14 06:55:46;;;;;;;10.85;8.90;;;;;;;;;;5001588;28;20458;-81
2021/11/14 06:58:14;;;;;;;9.53;8.43;;;;;;;;;;5030778;28;20218;-83
2021/11/14 07:00:42;;;;;;;10.17;8.30;;;;;;;;;;5037844;28;20454;-82
2021/11/14 07:03:09;;;;;;;9.83;8.40;;;;;;;;;;5051244;28;20441;-80
2021/11/14 07:05:37;;;;;;;9.53;8.53;;;;;;;;;;5053558;28;20484;-83
2021/11/14 07:08:04;;;;;;;9.02;7.18;;;;;;;;;;5030696;28;20482;-82
2021/11/14 07:10:31;;;;;;;9.40;8.40;;;;;;;;;;5014259;28;20479;-83
2021/11/14 07:13:00;;;;;;;9.43;8.43;;;;;;;;;;5022895;28;20485;-81
2021/11/14 07:15:27;;;;;;;8.73;7.83;;;;;;;;;;5032195;28;20203;-82
2021/11/14 07:17:55;;;;;;;9.97;8.80;;;;;;;;;;5037567;28;20454;-78
2021/11/14 07:20:22;;;;;;;10.00;8.63;;;;;;;;;;5029714;28;20551;-83
2021/11/14 07:22:49;;;;;;;8.20;7.37;;;;;;;;;;5013945;28;20470;-84
2021/11/14 07:25:18;;;;;;;8.87;7.70;;;;;;;;;;5021221;28;20497;-84
2021/11/14 07:27:46;;;;;;;12.73;8.77;;;;;;;;;;5015136;28;20842;-83
2021/11/14 07:30:15;;;;;;;9.60;7.97;;;;;;;;;;5013654;28;20465;-86
2021/11/14 07:32:43;;;;;;;9.07;8.17;;;;;;;;;;5035265;28;20473;-86
2021/11/14 07:35:11;;;;;;;9.80;8.80;;;;;;;;;;5034376;28;20445;-85
2021/11/14 07:37:39;;;;;;;11.77;8.67;;;;;;;;;;5037566;28;20947;-85
2021/11/14 07:40:07;;;;;;;9.40;8.40;;;;;;;;;;5037486;28;20444;-85
2021/11/14 07:42:36;;;;;;;8.70;7.80;;;;;;;;;;5014384;28;20458;-85
2021/11/14 07:45:04;;;;;;;9.23;8.33;;;;;;;;;;5008923;28;20477;-84
2021/11/14 07:47:32;;;;;;;10.45;8.60;;;;;;;;;;5033126;28;20439;-85
2021/11/14 07:49:59;;;;;;;8.80;7.60;;;;;;;;;;5032407;28;20194;-85
2021/11/14 07:52:29;;;;;;;8.77;7.80;;;;;;;;;;5032375;28;20489;-85
2021/11/14 07:54:56;;;;;;;9.60;8.60;;;;;;;;;;5033570;28;21009;-84
2021/11/14 07:57:23;;;;;;;10.77;8.97;;;;;;;;;;5015945;28;20449;-86
2021/11/14 07:59:51;;;;;;;7.93;7.07;;;;;;;;;;5028383;28;20452;-84
2021/11/14 08:02:18;;;;;;;9.23;8.10;;;;;;;;;;5036690;28;20465;-83
2021/11/14 08:04:46;;;;;;;9.03;7.70;;;;;;;;;;5020228;28;20481;-80
2021/11/14 08:07:14;;;;;;;9.23;7.60;;;;;;;;;;5025108;28;20435;-83
2021/11/14 08:09:41;;;;;;;8.90;7.20;;;;;;;;;;4995470;28;20447;-85
2021/11/14 08:12:09;;;;;;;9.77;8.07;;;;;;;;;;5013215;28;20489;-85
2021/11/14 08:14:36;;;;;;;10.10;8.20;;;;;;;;;;5022981;28;20454;-85
2021/11/14 08:17:03;;;;;;;8.33;7.50;;;;;;;;;;5014617;28;20807;-83
2021/11/14 08:19:30;;;;;;;7.50;6.70;;;;;;;;;;5029019;28;20456;-82
2021/11/14 08:21:59;;;;;;;8.97;7.77;;;;;;;;;;5034783;28;20826;-82
2021/11/14 08:24:26;;;;;;;7.23;6.37;;;;;;;;;;5030085;28;20442;-84
2021/11/14 08:26:53;;;;;;;8.00;6.10;;;;;;;;;;5011020;28;20909;-86
2021/11/14 08:29:21;;;;;;;6.90;6.17;;;;;;;;;;5022685;28;20488;-84
2021/11/14 08:31:48;;;;;;;6.20;5.60;;;;;;;;;;5012483;28;20466;-81
2021/11/14 08:34:15;;;;;;;6.67;6.03;;;;;;;;;;5019874;28;20492;-85
2021/11/14 08:36:42;;;;;;;8.80;6.60;;;;;;;;;;5033654;28;20454;-88
2021/11/14 08:39:11;;;;;;;6.37;5.40;;;;;;;;;;5027013;28;20454;-82
2021/11/14 08:41:38;;;;;;;6.00;5.40;;;;;;;;;;5010755;28;20490;-85
2021/11/14 08:44:06;;;;;;;6.30;5.63;;;;;;;;;;5027701;28;20556;-80
2021/11/14 08:46:33;;;;;;;5.13;4.63;;;;;;;;;;5031154;28;20846;-84
2021/11/14 08:49:01;;;;;;;4.97;4.47;;;;;;;;;;5033156;28;20462;-81
2021/11/14 08:51:28;;;;;;;4.50;4.10;;;;;;;;;;5040573;28;20857;-84
2021/11/14 08:53:58;;;;;;;4.93;3.80;;;;;;;;;;5032305;28;20430;-83
2021/11/14 08:56:27;;;;;;;3.80;3.50;;;;;;;;;;5023635;28;20470;-80
2021/11/14 08:58:54;;;;;;;4.30;3.83;;;;;;;;;;5012137;28;20800;-82
2021/11/14 09:01:21;;;;;;;4.00;3.40;;;;;;;;;;5029763;28;20460;-80
2021/11/14 09:03:49;;;;;;;3.97;3.40;;;;;;;;;;5038114;28;20450;-81
2021/11/14 09:06:16;;;;;;;3.70;3.40;;;;;;;;;;5042075;28;20481;-87
2021/11/14 09:08:43;;;;;;;3.47;3.17;;;;;;;;;;5017842;28;20791;-82
2021/11/14 09:11:10;;;;;;;3.47;3.17;;;;;;;;;;5042220;28;20502;-82
2021/11/14 09:13:39;;;;;;;3.47;3.17;;;;;;;;;;5030761;28;20438;-82
2021/11/14 09:16:06;;;;;;;3.00;2.60;;;;;;;;;;5011946;28;20470;-83
2021/11/14 09:18:34;;;;;;;2.60;2.40;;;;;;;;;;5024517;28;20473;-82
2021/11/14 09:21:02;;;;;;;3.33;3.00;;;;;;;;;;5016836;28;20494;-83
2021/11/14 09:23:29;;;;;;;2.90;2.70;;;;;;;;;;5034027;28;20461;-82
2021/11/14 09:25:57;;;;;;;3.03;2.83;;;;;;;;;;5033838;28;20873;-79
2021/11/14 09:28:24;;;;;;;2.60;2.40;;;;;;;;;;5029976;28;20454;-80
2021/11/14 09:30:53;;;;;;;2.97;2.73;;;;;;;;;;5030564;28;20430;-78
2021/11/14 09:33:22;;;;;;;2.70;2.40;;;;;;;;;;5012920;28;20962;-80
2021/11/14 09:35:49;;;;;;;2.50;2.30;;;;;;;;;;5013376;28;20469;-80
2021/11/14 09:38:17;;;;;;;2.17;1.93;;;;;;;;;;5032788;28;20449;-79
2021/11/14 09:40:44;;;;;;;1.90;1.80;;;;;;;;;;5004163;28;20463;-79
2021/11/14 09:43:13;;;;;;;2.33;2.13;;;;;;;;;;5014234;28;20435;-80
2021/11/14 09:45:41;;;;;;;2.07;1.97;;;;;;;;;;5036350;28;20477;-79
2021/11/14 09:48:09;;;;;;;1.90;1.73;;;;;;;;;;5039554;28;20429;-81
2021/11/14 09:50:36;;;;;;;2.13;1.93;;;;;;;;;;5049622;28;20816;-80
2021/11/14 09:53:04;;;;;;;1.77;1.67;;;;;;;;;;5050733;28;20481;-81
2021/11/14 09:55:35;;;;;;;1.90;1.80;;;;;;;;;;5032667;28;20474;-82
2021/11/14 09:58:03;;;;;;;2.03;1.90;;;;;;;;;;5026192;28;20466;-80
2021/11/14 10:00:30;;;;;;;2.10;1.90;;;;;;;;;;5014690;28;20442;-82
2021/11/14 10:02:59;;;;;;;1.60;1.50;;;;;;;;;;5031848;28;20464;-83
2021/11/14 10:05:27;;;;;;;1.70;1.57;;;;;;;;;;5028917;28;20829;-82
2021/11/14 10:07:55;;;;;;;1.63;1.53;;;;;;;;;;5036995;28;20521;-83
2021/11/14 10:10:24;;;;;;;2.27;2.17;;;;;;;;;;5026128;28;20441;-86
2021/11/14 10:12:52;;;;;;;4.80;1.80;;;;;;;;;;5054008;28;20461;-85
2021/11/14 10:15:20;;;;;;;1.90;1.80;;;;;;;;;;5037916;28;20926;-85
2021/11/14 10:17:48;;;;;;;3.10;1.60;;;;;;;;;;5012909;28;20975;-85
2021/11/14 10:20:18;;;;;;;1.67;1.57;;;;;;;;;;5014089;28;20473;-84
2021/11/14 10:22:47;;;;;;;2.20;2.00;;;;;;;;;;5024547;28;20458;-84
2021/11/14 10:25:15;;;;;;;1.77;1.67;;;;;;;;;;5038040;28;20478;-84
2021/11/14 10:27:43;;;;;;;2.10;1.80;;;;;;;;;;5040021;28;20988;-84
2021/11/14 10:30:14;;;;;;;1.73;1.63;;;;;;;;;;5033852;28;20445;-84
2021/11/14 10:32:42;;;;;;;1.70;1.60;;;;;;;;;;4998955;28;20483;-84
2021/11/14 10:35:09;;;;;;;1.83;1.70;;;;;;;;;;5016275;28;20462;-83
2021/11/14 10:37:42;;;;;;;1.83;1.73;;;;;;;;;;5017276;28;20468;-83
2021/11/14 10:40:12;;;;;;;1.50;1.40;;;;;;;;;;5040009;28;20461;-84
2021/11/14 10:42:44;;;;;;;1.73;1.63;;;;;;;;;;5036758;28;20465;-84
2021/11/14 10:45:12;;;;;;;2.20;2.00;;;;;;;;;;5022202;28;20451;-82
2021/11/14 10:47:39;;;;;;;1.70;1.60;;;;;;;;;;5033419;28;20446;-82
2021/11/14 10:50:08;;;;;;;1.70;1.60;;;;;;;;;;5031917;28;20442;-85
2021/11/14 10:52:36;;;;;;;1.40;1.30;;;;;;;;;;5031231;28;20480;-84
2021/11/14 10:55:05;;;;;;;1.60;1.50;;;;;;;;;;5039895;28;20934;-83
2021/11/14 10:57:35;;;;;;;2.23;1.57;;;;;;;;;;5035507;28;20545;-81
2021/11/14 11:00:05;;;;;;;2.27;1.40;;;;;;;;;;5039004;28;20434;-82
2021/11/14 11:02:33;;;;;;;1.70;1.60;;;;;;;;;;5053352;28;20496;-80
2021/11/14 11:05:09;;;;;;;1.30;1.20;;;;;;;;;;5042453;28;20477;-80
2021/11/14 11:07:36;;;;;;;1.37;1.27;;;;;;;;;;5033728;28;20464;-83
2021/11/14 11:10:04;;;;;;;1.97;1.50;;;;;;;;;;5037382;28;20823;-83
2021/11/14 11:12:33;;;;;;;2.10;1.90;;;;;;;;;;5035719;28;20453;-79
2021/11/14 11:15:03;;;;;;;2.37;2.17;;;;;;;;;;5030257;28;20828;-81
2021/11/14 11:17:30;;;;;;;2.57;2.00;;;;;;;;;;5023221;28;20435;-82
2021/11/14 11:20:10;;;;;;;2.10;1.90;;;;;;;;;;5012542;28;20471;-83
2021/11/14 11:22:46;;;;;;;2.03;1.83;;;;;;;;;;5016593;28;20489;-83
2021/11/14 11:25:14;;;;;;;1.67;1.57;;;;;;;;;;5024725;28;20465;-82
2021/11/14 11:27:41;;;;;;;2.40;2.20;;;;;;;;;;5019468;28;20453;-78
2021/11/14 11:30:10;;;;;;;1.90;1.70;;;;;;;;;;5046931;28;20470;-84
2021/11/14 11:32:37;;;;;;;2.20;2.00;;;;;;;;;;5053284;28;20761;-85
2021/11/14 11:35:05;;;;;;;2.20;2.00;;;;;;;;;;5053391;28;20460;-83
2021/11/14 11:37:35;;;;;;;3.10;2.30;;;;;;;;;;5051837;28;20451;-88
2021/11/14 11:40:05;;;;;;;2.07;1.87;;;;;;;;;;5032871;28;20492;-83
2021/11/14 11:42:32;;;;;;;2.40;2.20;;;;;;;;;;5038987;28;20561;-83
2021/11/14 11:44:59;;;;;;;2.47;2.27;;;;;;;;;;5033324;28;20458;-80
2021/11/14 11:47:29;;;;;;;2.03;1.87;;;;;;;;;;5032832;28;20493;-84
2021/11/14 11:49:58;;;;;;;2.30;2.10;;;;;;;;;;5032790;28;20442;-84
2021/11/14 11:52:26;;;;;;;1.90;1.80;;;;;;;;;;5018954;28;20487;-83
2021/11/14 11:54:54;;;;;;;2.03;1.80;;;;;;;;;;5024234;28;20457;-86
2021/11/14 11:57:22;;;;;;;1.53;1.43;;;;;;;;;;5035092;28;20438;-83
2021/11/14 11:59:51;;;;;;;2.10;1.90;;;;;;;;;;5034601;28;20434;-83
2021/11/14 12:02:21;;;;;;;2.13;1.80;;;;;;;;;;5031597;28;20817;-83
2021/11/14 12:04:50;;;;;;;2.10;1.90;;;;;;;;;;5036596;28;20474;-82
2021/11/14 12:07:18;;;;;;;1.53;1.43;;;;;;;;;;5034978;28;20486;-82
2021/11/14 12:09:48;;;;;;;2.20;2.00;;;;;;;;;;5012797;28;20443;-81
2021/11/14 12:12:24;;;;;;;2.50;2.30;;;;;;;;;;5010646;28;20475;-82
2021/11/14 12:15:04;;;;;;;2.90;1.80;;;;;;;;;;5011987;28;20927;-81
2021/11/14 12:17:32;;;;;;;1.57;1.47;;;;;;;;;;5013441;28;20549;-85
2021/11/14 12:20:07;;;;;;;1.70;1.60;;;;;;;;;;5039550;28;20977;-82
2021/11/14 12:22:39;;;;;;;1.60;1.50;;;;;;;;;;5017959;28;20840;-81
2021/11/14 12:25:06;;;;;;;1.77;1.67;;;;;;;;;;5036345;28;20441;-82
2021/11/14 12:27:36;;;;;;;2.20;2.10;;;;;;;;;;5036850;28;20478;-80
2021/11/14 12:30:07;;;;;;;2.23;1.90;;;;;;;;;;5031348;28;20445;-78
2021/11/14 12:32:41;;;;;;;1.80;1.70;;;;;;;;;;5050612;28;20465;-82
2021/11/14 12:35:14;;;;;;;1.50;1.40;;;;;;;;;;5025769;28;20571;-80
2021/11/14 12:37:49;;;;;;;1.97;1.80;;;;;;;;;;5038607;28;20491;-83
2021/11/14 12:40:20;;;;;;;1.87;1.60;;;;;;;;;;5014245;28;20936;-83
2021/11/14 12:42:48;;;;;;;2.40;2.20;;;;;;;;;;5011917;28;21018;-83
2021/11/14 12:45:16;;;;;;;2.10;1.80;;;;;;;;;;5012195;28;20498;-81
2021/11/14 12:47:46;;;;;;;4.17;2.63;;;;;;;;;;5025694;28;20478;-84
2021/11/14 12:50:16;;;;;;;2.23;2.03;;;;;;;;;;5036459;28;20759;-81
2021/11/14 12:52:44;;;;;;;2.30;1.97;;;;;;;;;;5038403;28;20492;-86
2021/11/14 12:55:14;;;;;;;2.70;2.30;;;;;;;;;;5031581;28;20442;-81
2021/11/14 12:57:43;;;;;;;2.73;2.30;;;;;;;;;;5032014;28;20441;-81
2021/11/14 13:00:12;;;;;;;2.77;2.50;;;;;;;;;;5031860;28;20548;-81
2021/11/14 13:02:49;;;;;;;3.00;2.80;;;;;;;;;;5031308;28;20474;-80
2021/11/14 13:05:18;;;;;;;2.90;2.50;;;;;;;;;;5031625;28;20540;-81
2021/11/14 13:07:56;;;;;;;3.40;2.57;;;;;;;;;;5037561;28;20487;-83
2021/11/14 13:10:23;;;;;;;2.20;2.00;;;;;;;;;;5034449;28;20449;-83
2021/11/14 13:12:52;;;;;;;2.93;2.10;;;;;;;;;;5051017;28;20477;-86
2021/11/14 13:15:28;;;;;;;2.63;2.00;;;;;;;;;;5026315;28;20553;-83
2021/11/14 13:17:56;;;;;;;2.50;2.30;;;;;;;;;;5011404;28;20481;-83
2021/11/14 13:20:26;;;;;;;2.30;2.00;;;;;;;;;;5002783;28;20448;-86
2021/11/14 13:22:54;;;;;;;2.20;2.00;;;;;;;;;;5037219;28;20981;-83
2021/11/14 13:25:23;;;;;;;4.33;1.90;;;;;;;;;;5045384;28;20548;-88
2021/11/14 13:27:53;;;;;;;2.90;2.47;;;;;;;;;;5054974;28;20491;-89
2021/11/14 13:30:21;;;;;;;2.87;2.50;;;;;;;;;;5051632;28;20473;-87
2021/11/14 13:32:48;;;;;;;3.20;2.60;;;;;;;;;;5033742;28;20469;-87
2021/11/14 13:35:16;;;;;;;2.90;2.20;;;;;;;;;;5037702;28;20466;-87
2021/11/14 13:37:44;;;;;;;2.80;2.50;;;;;;;;;;5027562;28;20433;-86
2021/11/14 13:40:13;;;;;;;2.83;2.10;;;;;;;;;;5037134;28;20430;-88
2021/11/14 13:42:42;;;;;;;2.83;2.20;;;;;;;;;;5028855;28;20510;-87
2021/11/14 13:45:10;;;;;;;3.30;2.30;;;;;;;;;;5029991;28;20442;-88
2021/11/14 13:47:40;;;;;;;2.10;1.90;;;;;;;;;;5031084;28;20492;-80
2021/11/14 13:50:09;;;;;;;2.70;2.37;;;;;;;;;;5027827;28;20982;-87
2021/11/14 13:52:36;;;;;;;3.40;2.50;;;;;;;;;;5025399;28;20846;-84
2021/11/14 13:55:07;;;;;;;2.70;2.13;;;;;;;;;;5036026;28;20445;-85
2021/11/14 13:57:35;;;;;;;5.10;2.30;;;;;;;;;;5037397;28;20469;-87
2021/11/14 14:00:06;;;;;;;4.13;2.30;;;;;;;;;;5032677;28;20437;-86
2021/11/14 14:02:33;;;;;;;2.23;2.03;;;;;;;;;;5036696;28;20486;-86
2021/11/14 14:05:02;;;;;;;2.03;1.93;;;;;;;;;;5011121;28;20546;-87
2021/11/14 14:07:30;;;;;;;2.20;2.00;;;;;;;;;;5011423;28;20494;-80
2021/11/14 14:09:59;;;;;;;2.93;2.60;;;;;;;;;;5028190;28;20462;-82
2021/11/14 14:12:28;;;;;;;2.27;2.07;;;;;;;;;;5032732;28;20462;-80
2021/11/14 14:14:57;;;;;;;2.50;2.30;;;;;;;;;;5031950;28;20958;-79
2021/11/14 14:17:26;;;;;;;2.70;2.50;;;;;;;;;;5034957;28;20520;-81
2021/11/14 14:19:54;;;;;;;2.50;2.30;;;;;;;;;;5018691;28;20437;-80
2021/11/14 14:22:22;;;;;;;2.80;2.47;;;;;;;;;;5010745;28;21005;-81
2021/11/14 14:24:50;;;;;;;2.40;2.20;;;;;;;;;;5014830;28;20453;-80
2021/11/14 14:27:18;;;;;;;2.53;2.33;;;;;;;;;;5031093;28;20501;-78
2021/11/14 14:29:56;;;;;;;2.40;2.20;;;;;;;;;;5030080;28;20540;-81
2021/11/14 14:32:24;;;;;;;2.63;2.40;;;;;;;;;;5011898;28;20493;-79
2021/11/14 14:34:52;;;;;;;3.40;2.60;;;;;;;;;;5011951;28;20468;-81
2021/11/14 14:37:21;;;;;;;2.80;2.43;;;;;;;;;;5013165;28;20443;-80
2021/11/14 14:39:49;;;;;;;2.97;2.77;;;;;;;;;;5030498;28;20446;-81
2021/11/14 14:42:16;;;;;;;3.40;3.10;;;;;;;;;;5036679;28;20464;-80
2021/11/14 14:44:43;;;;;;;3.50;3.20;;;;;;;;;;5030040;28;20437;-81
2021/11/14 14:47:12;;;;;;;3.80;3.40;;;;;;;;;;5030443;28;20493;-78